KHWV

Brookhaven Airport

Shirley, New York, USA
METAR KHWV 191756Z AUTO VRB06KT 10SM FEW020 FEW030 BKN038 26/19 A2991 RMK AO2 SLP129 T02560194 10256 20211 50001
Observed Flight Rules
Sep-19 @ 17:56 UTC (52 minutes ago) Visual Flight Rules
Wind Visibility Clouds
Variable at 6 knots 10 miles
  • Few at 2,000' AGL
  • Few at 3,000' AGL
  • Broken at 3,800' AGL
Temperatures Readings
Current 26°C / 79°F
Dewpoint 19°C / 66°F
Humidity 65%
Altimeter 29.91" Hg
Pressure 1012.9 hPa
Elevation 21
METAR KHWV 191756Z AUTO VRB06KT 10SM FEW020 FEW030 BKN038 26/19 A2991 RMK AO2 SLP129 T02560194 10256 20211 50001
Observed Flight Rules
Sep-19 @ 17:56 UTC
(52 minutes ago)
VFR
Wind Visibility
Variable at 6 knots 10 miles
Clouds
  • Few at 2,000' AGL
  • Few at 3,000' AGL
  • Broken at 3,800' AGL
Temperature Dewpoint
26°C / 79°F 19°C / 66°F
Humidity Altimeter Pressure
65% 29.91" Hg 1012.9 hPa